createdAt,value
2018-04-10T00:00:43.791Z,96708.25
2018-04-10T00:01:46.805Z,96708.40
2018-04-10T00:02:50.137Z,96708.47
2018-04-10T00:03:53.225Z,96708.87
2018-04-10T00:04:57.837Z,96702.00
2018-04-10T00:06:02.549Z,96706.47
2018-04-10T00:07:06.790Z,96703.85
2018-04-10T00:08:10.094Z,96704.77
2018-04-10T00:09:13.041Z,96702.35
2018-04-10T00:10:15.953Z,96708.59
2018-04-10T00:11:19.475Z,96702.46
2018-04-10T00:12:23.088Z,96704.67
2018-04-10T00:13:28.520Z,96704.65
2018-04-10T00:14:32.193Z,96702.52
2018-04-10T00:15:35.167Z,96695.77
2018-04-10T00:16:38.216Z,96690.05
2018-04-10T00:17:41.122Z,96699.19
2018-04-10T00:18:45.474Z,96704.49
2018-04-10T00:19:49.188Z,96708.77
2018-04-10T00:20:52.222Z,96713.86
2018-04-10T00:21:55.552Z,96705.67
2018-04-10T00:22:58.500Z,96705.53
2018-04-10T00:24:02.264Z,96707.80
2018-04-10T00:25:05.887Z,96699.86
2018-04-10T00:26:09.327Z,96698.45
2018-04-10T00:27:12.309Z,96694.52
2018-04-10T00:28:15.367Z,96695.63
2018-04-10T00:29:19.223Z,96697.03
2018-04-10T00:30:23.348Z,96693.82
2018-04-10T00:31:26.897Z,96698.39
2018-04-10T00:32:30.197Z,96701.00
2018-04-10T00:33:33.130Z,96697.55
2018-04-10T00:34:36.196Z,96701.73
2018-04-10T00:35:40.009Z,96698.58
2018-04-10T00:36:43.231Z,96698.61
2018-04-10T00:37:46.336Z,96701.53
2018-04-10T00:38:49.641Z,96699.16
2018-04-10T00:39:52.755Z,96696.30
2018-04-10T00:40:58.706Z,96703.83
2018-04-10T00:42:03.033Z,96699.84
2018-04-10T00:43:07.050Z,96699.37
2018-04-10T00:44:10.070Z,96693.08
2018-04-10T00:45:13.381Z,96693.77
2018-04-10T00:46:16.418Z,96696.18
2018-04-10T00:47:20.058Z,96698.91
2018-04-10T00:48:23.698Z,96692.95
2018-04-10T00:49:26.799Z,96694.56
2018-04-10T00:50:30.013Z,96698.52
2018-04-10T00:51:33.197Z,96696.73
2018-04-10T00:52:36.489Z,96699.66
2018-04-10T00:53:40.571Z,96698.69
2018-04-10T00:54:43.484Z,96695.59
2018-04-10T00:55:47.041Z,96690.30
2018-04-10T00:56:50.038Z,96701.36
2018-04-10T00:57:53.733Z,96703.13
2018-04-10T00:58:57.853Z,96708.36
2018-04-10T01:00:02.457Z,96704.30
2018-04-10T01:01:05.474Z,96700.75
2018-04-10T01:02:08.404Z,96711.17
2018-04-10T01:03:11.317Z,96706.98
2018-04-10T01:04:15.264Z,96705.50
2018-04-10T01:05:19.712Z,96707.46
2018-04-10T01:06:23.767Z,96705.50
2018-04-10T01:07:27.051Z,96705.11
2018-04-10T01:08:30.242Z,96699.85
2018-04-10T01:09:34.824Z,96699.88
2018-04-10T01:10:39.095Z,96694.20
2018-04-10T01:11:44.397Z,96688.58
2018-04-10T01:12:49.399Z,96691.55
2018-04-10T01:13:54.989Z,96688.99
2018-04-10T01:15:03.830Z,96689.09
2018-04-10T01:16:09.501Z,96693.97
2018-04-10T01:17:15.795Z,96689.28
2018-04-10T01:18:19.995Z,96688.27
2018-04-10T01:19:23.373Z,96694.54
2018-04-10T01:20:26.567Z,96693.55
2018-04-10T01:21:31.260Z,96687.53
2018-04-10T01:22:34.445Z,96691.45
2018-04-10T01:23:37.746Z,96690.41
2018-04-10T01:24:40.722Z,96694.83
2018-04-10T01:25:44.292Z,96697.18
2018-04-10T01:26:47.518Z,96692.37
2018-04-10T01:27:50.729Z,96700.20
2018-04-10T01:28:53.679Z,96701.89
2018-04-10T01:29:57.273Z,96706.11
2018-04-10T01:31:01.317Z,96699.72
2018-04-10T01:32:05.515Z,96698.61
2018-04-10T01:33:08.696Z,96701.92
2018-04-10T01:34:11.670Z,96697.97
2018-04-10T01:35:14.596Z,96699.39
2018-04-10T01:36:18.214Z,96696.43
2018-04-10T01:37:22.260Z,96694.81
2018-04-10T01:38:25.239Z,96692.36
2018-04-10T01:39:28.181Z,96694.17
2018-04-10T01:40:31.159Z,96692.69
2018-04-10T01:41:35.818Z,96693.69
2018-04-10T01:42:39.935Z,96691.90
2018-04-10T01:43:44.077Z,96689.71
2018-04-10T01:44:48.069Z,96696.30
2018-04-10T01:45:51.040Z,96701.84
2018-04-10T01:46:54.054Z,96703.78
2018-04-10T01:47:57.594Z,96703.98
2018-04-10T01:49:02.894Z,96710.22
2018-04-10T01:50:07.148Z,96712.97
2018-04-10T01:51:10.113Z,96717.34
2018-04-10T01:52:13.115Z,96712.92
2018-04-10T01:53:16.112Z,96720.11
2018-04-10T01:54:20.997Z,96713.81
2018-04-10T01:55:27.148Z,96717.02
2018-04-10T01:56:32.486Z,96713.94
2018-04-10T01:57:36.595Z,96713.19
2018-04-10T01:58:40.614Z,96708.84
2018-04-10T01:59:43.625Z,96709.51
2018-04-10T02:00:46.560Z,96713.02
2018-04-10T02:01:49.820Z,96713.39
2018-04-10T02:02:53.450Z,96706.77
2018-04-10T02:03:57.597Z,96706.25
2018-04-10T02:05:01.059Z,96704.16
2018-04-10T02:06:03.983Z,96711.35
2018-04-10T02:07:06.896Z,96710.83
2018-04-10T02:08:10.871Z,96708.05
2018-04-10T02:09:14.593Z,96701.75
2018-04-10T02:12:44.525Z,96701.69
2018-04-10T02:13:49.383Z,96701.84
2018-04-10T02:19:46.472Z,96701.92
2018-04-10T02:20:49.420Z,96699.49
2018-04-10T02:21:52.328Z,96700.02
2018-04-10T02:22:55.550Z,96704.80
2018-04-10T02:23:58.896Z,96700.97
2018-04-10T02:25:01.916Z,96707.94
2018-04-10T02:26:05.109Z,96697.57
2018-04-10T02:27:08.025Z,96696.67
2018-04-10T02:28:12.471Z,96696.77
2018-04-10T02:29:15.732Z,96697.20
2018-04-10T02:30:18.629Z,96693.31
2018-04-10T02:31:21.621Z,96696.20
2018-04-10T02:32:24.867Z,96695.40
2018-04-10T02:33:28.081Z,96692.22
2018-04-10T02:34:31.512Z,96693.45
2018-04-10T02:35:34.406Z,96697.33
2018-04-10T02:36:37.311Z,96691.13
2018-04-10T02:37:40.411Z,96688.52
2018-04-10T02:38:45.729Z,96688.52
2018-04-10T02:39:48.929Z,96682.88
2018-04-10T02:40:51.871Z,96689.47
2018-04-10T02:41:54.845Z,96689.15
2018-04-10T02:42:57.982Z,96691.48
2018-04-10T02:44:02.388Z,96692.85
2018-04-10T02:45:08.632Z,96696.55
2018-04-10T02:46:12.047Z,96697.39
2018-04-10T02:47:15.301Z,96691.09
2018-04-10T02:48:18.301Z,96692.13
2018-04-10T02:49:21.252Z,96691.47
2018-04-10T02:50:25.679Z,96694.59
2018-04-10T02:51:29.935Z,96688.86
2018-04-10T02:52:33.865Z,96695.59
2018-04-10T02:53:36.907Z,96685.83
2018-04-10T02:54:40.231Z,96690.66
2018-04-10T02:55:43.203Z,96686.70
2018-04-10T02:56:47.247Z,96694.70
2018-04-10T02:57:51.197Z,96695.16
2018-04-10T02:58:54.147Z,96697.84
2018-04-10T02:59:57.152Z,96694.81
2018-04-10T03:01:00.073Z,96693.11
2018-04-10T03:02:03.451Z,96699.05
2018-04-10T03:03:07.589Z,96699.56
2018-04-10T03:04:10.518Z,96698.22
2018-04-10T03:05:14.002Z,96691.40
2018-04-10T03:06:16.900Z,96691.98
2018-04-10T03:07:20.670Z,96693.44
2018-04-10T03:08:24.793Z,96697.41
2018-04-10T03:09:28.291Z,96696.95
2018-04-10T03:10:31.487Z,96698.25
2018-04-10T03:11:34.393Z,96699.34
2018-04-10T03:12:37.765Z,96699.72
2018-04-10T03:13:42.298Z,96702.81
2018-04-10T03:14:45.121Z,96695.28
2018-04-10T03:15:48.852Z,96696.58
2018-04-10T03:16:51.785Z,96693.33
2018-04-10T03:17:55.217Z,96691.50
2018-04-10T03:18:59.860Z,96695.58
2018-04-10T03:20:03.533Z,96695.09
2018-04-10T03:21:06.661Z,96698.58
2018-04-10T03:22:09.840Z,96690.83
2018-04-10T03:23:12.782Z,96694.48
2018-04-10T03:24:16.728Z,96692.93
2018-04-10T03:25:20.911Z,96697.17
2018-04-10T03:26:24.353Z,96700.78
2018-04-10T03:27:27.482Z,96694.80
2018-04-10T03:28:30.681Z,96695.98
2018-04-10T03:29:34.625Z,96696.28
2018-04-10T03:30:39.953Z,96700.97
2018-04-10T03:31:43.565Z,96698.34
2018-04-10T03:32:46.508Z,96699.45
2018-04-10T03:33:49.453Z,96704.16
2018-04-10T03:34:52.435Z,96701.03
2018-04-10T03:35:55.890Z,96703.50
2018-04-10T03:36:59.979Z,96698.51
2018-04-10T03:38:02.823Z,96704.52
2018-04-10T03:39:05.695Z,96698.42
2018-04-10T03:40:08.522Z,96698.34
2018-04-10T03:41:13.102Z,96702.96
2018-04-10T03:42:16.643Z,96696.05
2018-04-10T03:43:20.170Z,96692.56
2018-04-10T03:44:23.207Z,96701.40
2018-04-10T03:45:26.592Z,96697.20
2018-04-10T03:46:29.850Z,96695.81
2018-04-10T03:47:33.492Z,96696.24
2018-04-10T03:48:36.485Z,96703.76
2018-04-10T03:49:39.785Z,96703.20
2018-04-10T03:50:42.701Z,96701.06
2018-04-10T03:51:47.461Z,96706.65
2018-04-10T03:52:51.161Z,96704.62
2018-04-10T03:55:02.172Z,96704.90
2018-04-10T03:56:05.324Z,96709.80
2018-04-10T03:57:08.553Z,96710.20
2018-04-10T03:58:11.470Z,96711.75
2018-04-10T03:59:14.722Z,96713.63
2018-04-10T04:00:19.067Z,96712.31
2018-04-10T04:01:22.094Z,96716.36
2018-04-10T04:02:25.229Z,96711.59
2018-04-10T04:03:28.371Z,96716.23
2018-04-10T04:04:31.907Z,96712.34
2018-04-10T04:05:35.624Z,96712.58
2018-04-10T04:06:38.786Z,96713.16
2018-04-10T04:07:41.728Z,96707.23
2018-04-10T04:08:44.731Z,96714.80
2018-04-10T04:09:48.568Z,96703.74
2018-04-10T04:10:52.679Z,96702.57
2018-04-10T04:11:56.505Z,96706.21
2018-04-10T04:12:59.475Z,96708.84
2018-04-10T04:14:02.423Z,96704.35
2018-04-10T04:15:05.650Z,96699.95
2018-04-10T04:16:09.888Z,96703.31
2018-04-10T04:17:12.780Z,96699.52
2018-04-10T04:18:15.736Z,96696.78
2018-04-10T04:19:18.551Z,96702.83
2018-04-10T04:20:22.491Z,96703.94
2018-04-10T04:21:27.086Z,96699.77
2018-04-10T04:22:31.092Z,96705.19
2018-04-10T04:23:34.137Z,96703.25
2018-04-10T04:24:37.031Z,96700.40
2018-04-10T04:25:40.920Z,96697.30
2018-04-10T04:26:45.311Z,96701.47
2018-04-10T04:27:48.847Z,96700.35
2018-04-10T04:28:52.351Z,96702.71
2018-04-10T04:29:55.288Z,96706.00
2018-04-10T04:30:58.187Z,96707.18
2018-04-10T04:32:01.982Z,96712.80
2018-04-10T04:33:05.874Z,96710.99
2018-04-10T04:34:08.975Z,96712.91
2018-04-10T04:35:12.184Z,96705.39
2018-04-10T04:36:15.132Z,96706.34
2018-04-10T04:37:18.518Z,96703.77
2018-04-10T04:38:23.088Z,96707.72
2018-04-10T04:39:26.464Z,96700.90
2018-04-10T04:40:29.429Z,96704.29
2018-04-10T04:41:32.693Z,96704.67
2018-04-10T04:42:36.304Z,96708.17
2018-04-10T04:43:40.280Z,96705.52
2018-04-10T04:44:43.400Z,96707.03
2018-04-10T04:45:46.970Z,96701.41
2018-04-10T04:46:49.904Z,96707.47
2018-04-10T04:47:53.646Z,96705.50
2018-04-10T04:48:58.153Z,96706.88
2018-04-10T04:50:01.856Z,96707.02
2018-04-10T04:51:05.284Z,96709.77
2018-04-10T04:52:08.298Z,96706.22
2018-04-10T04:53:11.258Z,96706.52
2018-04-10T04:54:15.407Z,96710.33
2018-04-10T04:55:19.119Z,96705.50
2018-04-10T04:56:22.056Z,96713.87
2018-04-10T04:57:25.111Z,96708.92
2018-04-10T04:58:28.056Z,96710.60
2018-04-10T04:59:32.393Z,96713.78
2018-04-10T05:00:37.029Z,96717.21
2018-04-10T05:01:40.422Z,96714.16
2018-04-10T05:02:43.277Z,96715.68
2018-04-10T05:03:46.252Z,96715.47
2018-04-10T05:04:49.655Z,96721.47
2018-04-10T05:05:54.044Z,96719.66
2018-04-10T05:06:58.106Z,96733.27
2018-04-10T05:08:01.071Z,96733.53
2018-04-10T05:09:04.144Z,96733.00
2018-04-10T05:10:07.066Z,96736.02
2018-04-10T05:11:15.853Z,96734.80
2018-04-10T05:12:18.954Z,96733.20
2018-04-10T05:13:25.757Z,96732.51
2018-04-10T05:14:31.135Z,96732.28
2018-04-10T05:15:36.225Z,96727.46
2018-04-10T05:16:43.086Z,96732.18
2018-04-10T05:17:48.673Z,96734.08
2018-04-10T05:18:54.060Z,96736.59
2018-04-10T05:20:05.137Z,96734.92
2018-04-10T05:21:08.320Z,96747.11
2018-04-10T05:22:11.465Z,96743.91
2018-04-10T05:23:14.814Z,96729.98
2018-04-10T05:24:17.927Z,96736.17
2018-04-10T05:25:22.357Z,96736.02
2018-04-10T05:26:26.792Z,96734.88
2018-04-10T05:27:29.778Z,96728.02
2018-04-10T05:28:32.754Z,96733.35
2018-04-10T05:29:36.035Z,96735.70
2018-04-10T05:30:39.809Z,96735.55
2018-04-10T05:31:42.785Z,96736.63
2018-04-10T05:32:46.001Z,96737.09
2018-04-10T05:33:48.880Z,96740.92
2018-04-10T05:34:52.245Z,96743.67
2018-04-10T05:35:56.028Z,96741.47
2018-04-10T05:36:58.908Z,96745.41
2018-04-10T05:38:01.872Z,96748.55
2018-04-10T05:39:05.164Z,96744.73
2018-04-10T05:40:08.329Z,96741.17
2018-04-10T05:41:11.655Z,96745.58
2018-04-10T05:42:14.510Z,96743.67
2018-04-10T05:43:18.161Z,96751.52
2018-04-10T05:44:21.057Z,96746.50
2018-04-10T05:45:26.056Z,96747.52
2018-04-10T05:46:29.536Z,96743.47
2018-04-10T05:47:32.451Z,96749.48
2018-04-10T05:48:35.424Z,96748.84
2018-04-10T05:49:38.395Z,96755.88
2018-04-10T05:50:42.020Z,96752.83
2018-04-10T05:51:45.960Z,96758.53
2018-04-10T05:52:49.069Z,96758.24
2018-04-10T05:53:52.186Z,96756.96
2018-04-10T05:54:55.094Z,96763.41
2018-04-10T05:55:58.632Z,96756.70
2018-04-10T05:57:02.599Z,96756.41
2018-04-10T05:58:07.234Z,96759.13
2018-04-10T05:59:10.227Z,96761.52
2018-04-10T06:00:13.247Z,96760.16
2018-04-10T06:01:16.634Z,96754.78
2018-04-10T06:02:20.481Z,96762.87
2018-04-10T06:03:23.399Z,96765.70
2018-04-10T06:04:26.603Z,96763.25
2018-04-10T06:05:29.591Z,96770.02
2018-04-10T06:06:33.840Z,96771.33
2018-04-10T06:07:40.340Z,96767.63
2018-04-10T06:08:44.397Z,96769.34
2018-04-10T06:09:48.263Z,96769.25
2018-04-10T06:10:51.759Z,96769.21
2018-04-10T06:11:54.687Z,96776.95
2018-04-10T06:12:57.659Z,96772.81
2018-04-10T06:14:01.346Z,96771.39
2018-04-10T06:15:08.441Z,96770.42
2018-04-10T07:27:50.416Z,96783.33
2018-04-10T07:28:53.509Z,96782.50
2018-04-10T07:29:57.187Z,96784.63
2018-04-10T07:31:01.074Z,96781.34
2018-04-10T07:32:04.741Z,96787.98
2018-04-10T07:33:07.717Z,96789.31
2018-04-10T07:34:11.730Z,96789.52
2018-04-10T07:35:16.418Z,96797.09
2018-04-10T07:36:19.651Z,96790.59
2018-04-10T07:37:22.925Z,96791.52
2018-04-10T07:38:25.946Z,96799.61
2018-04-10T08:16:32.251Z,96817.08
2018-04-10T08:17:35.207Z,96822.03
2018-04-10T08:18:38.161Z,96827.19
2018-04-10T08:19:41.113Z,96828.84
2018-04-10T08:20:44.096Z,96830.64
2018-04-10T08:21:47.094Z,96828.15
2018-04-10T08:22:50.529Z,96826.73
2018-04-10T08:23:53.493Z,96823.91
2018-04-10T08:24:56.533Z,96832.77
2018-04-10T08:25:59.525Z,96831.16
2018-04-10T08:27:02.531Z,96837.22
2018-04-10T08:28:05.525Z,96833.67
2018-04-10T08:29:09.327Z,96837.72
2018-04-10T08:30:12.418Z,96836.84
2018-04-10T08:31:15.435Z,96832.06
2018-04-10T08:32:19.331Z,96834.72
2018-04-10T08:33:22.522Z,96842.75
2018-04-10T08:34:26.242Z,96840.73
2018-04-10T08:35:29.736Z,96843.31
2018-04-10T08:36:32.667Z,96840.34
2018-04-10T08:37:39.117Z,96842.83
2018-04-10T08:38:42.100Z,96842.33
2018-04-10T08:39:45.573Z,96839.20
2018-04-10T08:40:49.441Z,96839.70
2018-04-10T08:41:53.088Z,96833.45
2018-04-10T08:43:00.698Z,96830.66
2018-04-10T08:44:05.947Z,96828.40
2018-04-10T08:45:14.351Z,96829.42
2018-04-10T08:46:19.681Z,96828.16
2018-04-10T08:47:25.000Z,96835.94
2018-04-10T08:48:28.760Z,96834.70
2018-04-10T08:49:33.293Z,96836.43
2018-04-10T08:50:36.621Z,96838.41
2018-04-10T08:51:39.738Z,96836.57
2018-04-10T08:52:42.783Z,96844.04
2018-04-10T08:53:46.179Z,96837.83
2018-04-10T08:54:50.342Z,96837.84
2018-04-10T08:55:53.431Z,96833.86
2018-04-10T08:56:56.389Z,96842.96
2018-04-10T08:57:59.494Z,96840.55
2018-04-10T08:59:02.746Z,96842.86
2018-04-10T09:00:07.060Z,96843.39
2018-04-10T09:01:10.842Z,96840.44
2018-04-10T09:02:13.902Z,96839.03
2018-04-10T09:03:16.945Z,96845.34
2018-04-10T09:04:20.165Z,96842.06
2018-04-10T09:05:24.889Z,96838.20
2018-04-10T09:06:28.127Z,96834.95
2018-04-10T09:07:33.269Z,96833.14
2018-04-10T09:08:37.622Z,96828.80
2018-04-10T09:09:40.707Z,96833.25
2018-04-10T09:10:43.804Z,96835.17
2018-04-10T09:11:46.846Z,96833.30
2018-04-10T09:12:51.584Z,96835.44
2018-04-10T09:13:54.841Z,96835.20
2018-04-10T09:14:59.550Z,96836.52
2018-04-10T09:16:03.531Z,96838.22
2018-04-10T09:17:07.311Z,96834.88
2018-04-10T09:18:10.255Z,96834.49
2018-04-10T09:19:13.482Z,96831.36
2018-04-10T09:20:16.757Z,96830.34
2018-04-10T09:21:20.325Z,96830.60
2018-04-10T09:22:23.399Z,96828.09
2018-04-10T09:23:27.134Z,96829.66
2018-04-10T09:24:30.068Z,96827.77
2018-04-10T09:25:33.742Z,96830.03
2018-04-10T09:26:37.027Z,96831.59
2018-04-10T09:27:40.069Z,96827.26
2018-04-10T09:28:43.029Z,96827.22
2018-04-10T09:29:46.276Z,96827.89
2018-04-10T09:30:50.390Z,96829.70
2018-04-10T09:31:53.970Z,96829.78
2018-04-10T09:32:56.987Z,96833.68
2018-04-10T09:33:59.979Z,96827.97
2018-04-10T09:35:03.079Z,96835.80
2018-04-10T09:36:06.558Z,96832.00
2018-04-10T09:37:09.526Z,96831.75
2018-04-10T09:38:12.898Z,96829.48
2018-04-10T09:39:15.854Z,96837.78
2018-04-10T09:40:20.304Z,96827.92
2018-04-10T09:41:24.092Z,96834.17
2018-04-10T09:42:27.100Z,96836.45
2018-04-10T09:43:30.044Z,96831.42
2018-04-10T09:44:33.840Z,96835.19
2018-04-10T09:45:38.207Z,96834.42
2018-04-10T09:47:50.326Z,96837.71
2018-04-10T09:48:54.633Z,96840.30
2018-04-10T09:49:57.957Z,96832.75
2018-04-10T09:51:01.742Z,96827.72
2018-04-10T09:52:04.848Z,96829.83
2018-04-10T09:53:07.968Z,96833.73
2018-04-10T09:54:12.039Z,96828.98
2018-04-10T09:55:17.340Z,96827.00
2018-04-10T09:56:21.753Z,96825.13
2018-04-10T09:57:28.080Z,96821.88
2018-04-10T09:58:33.686Z,96819.74
2018-04-10T09:59:42.225Z,96821.61
2018-04-10T10:00:45.827Z,96822.87
2018-04-10T10:01:49.597Z,96827.49
2018-04-10T10:02:53.708Z,96824.24
2018-04-10T10:03:57.823Z,96823.61
2018-04-10T10:05:00.841Z,96825.75
2018-04-10T10:06:03.750Z,96823.63
2018-04-10T10:07:07.168Z,96820.00
2018-04-10T10:08:11.180Z,96823.77
2018-04-10T10:09:14.472Z,96824.76
2018-04-10T10:10:18.080Z,96822.02
2018-04-10T10:11:22.041Z,96827.27
2018-04-10T10:12:25.001Z,96824.98
2018-04-10T10:13:28.768Z,96821.56
2018-04-10T10:14:32.745Z,96820.26
2018-04-10T10:15:36.202Z,96824.13
2018-04-10T10:16:40.122Z,96823.09
2018-04-10T10:17:45.150Z,96830.41
2018-04-10T10:18:48.521Z,96826.07
2018-04-10T10:24:51.610Z,96823.77
2018-04-10T10:25:56.362Z,96827.81
2018-04-10T10:26:59.965Z,96824.17
2018-04-10T10:28:04.473Z,96819.42
2018-04-10T10:29:08.008Z,96827.85
2018-04-10T10:30:11.959Z,96828.10
2018-04-10T10:31:15.466Z,96826.14
2018-04-10T10:32:18.531Z,96823.19
2018-04-10T10:33:21.518Z,96821.77
2018-04-10T10:34:24.479Z,96818.56
2018-04-10T10:35:29.349Z,96820.50
2018-04-10T10:36:32.740Z,96820.54
2018-04-10T10:37:36.111Z,96817.73
2018-04-10T10:38:39.115Z,96816.95
2018-04-10T10:39:42.427Z,96817.53
2018-04-10T10:40:45.390Z,96823.72
2018-04-10T10:41:48.393Z,96818.86
2018-04-10T10:42:51.363Z,96819.38
2018-04-10T10:43:55.831Z,96810.80
2018-04-10T10:44:59.353Z,96815.78
2018-04-10T10:46:04.130Z,96817.72
2018-04-10T10:47:07.191Z,96820.67
2018-04-10T10:48:10.190Z,96815.37
2018-04-10T10:49:13.144Z,96812.17
2018-04-10T10:50:16.945Z,96816.77
2018-04-10T10:51:20.796Z,96811.03
2018-04-10T10:52:25.325Z,96808.88
2018-04-10T10:53:28.583Z,96813.88
2018-04-10T10:54:31.885Z,96812.41
2018-04-10T10:55:34.931Z,96818.64
2018-04-10T10:56:37.964Z,96824.28
2018-04-10T10:57:41.762Z,96812.30
2018-04-10T10:58:44.756Z,96814.66
2018-04-10T10:59:47.756Z,96813.44
2018-04-10T11:00:50.797Z,96813.57
2018-04-10T11:01:55.183Z,96806.76
2018-04-10T11:02:58.091Z,96802.69
2018-04-10T11:04:01.828Z,96810.11
2018-04-10T11:05:05.157Z,96808.13
2018-04-10T11:06:08.147Z,96806.97
2018-04-10T11:07:11.689Z,96806.50
2018-04-10T11:08:15.253Z,96797.46
2018-04-10T11:09:18.472Z,96804.49
2018-04-10T11:10:21.412Z,96793.64
2018-04-10T11:11:26.766Z,96794.47
2018-04-10T11:12:30.509Z,96797.80
2018-04-10T11:13:34.274Z,96796.89
2018-04-10T11:14:37.729Z,96796.05
2018-04-10T11:15:40.865Z,96795.02
2018-04-10T11:16:45.323Z,96790.76
2018-04-10T11:17:48.455Z,96795.79
2018-04-10T11:18:51.439Z,96800.78
2018-04-10T11:19:54.346Z,96790.52
2018-04-10T11:20:57.741Z,96788.41
2018-04-10T11:22:00.749Z,96797.10
2018-04-10T11:23:05.268Z,96794.87
2018-04-10T11:24:08.264Z,96790.92
2018-04-10T11:25:13.326Z,96791.14
2018-04-10T11:26:16.743Z,96786.16
2018-04-10T11:27:20.983Z,96783.05
2018-04-10T11:28:24.162Z,96775.28
2018-04-10T11:29:27.207Z,96778.13
2018-04-10T11:30:30.156Z,96772.41
2018-04-10T11:31:33.857Z,96777.84
2018-04-10T11:32:36.850Z,96781.38
2018-04-10T11:33:41.074Z,96774.20
2018-04-10T11:34:44.104Z,96772.53
2018-04-10T11:35:47.150Z,96769.40
2018-04-10T11:36:50.148Z,96774.08
2018-04-10T11:37:53.091Z,96772.06
2018-04-10T11:38:56.141Z,96767.27
2018-04-10T11:39:59.360Z,96766.48
2018-04-10T11:41:03.882Z,96769.70
2018-04-10T11:42:06.797Z,96765.74
2018-04-10T11:43:13.110Z,96768.09
2018-04-10T11:44:16.021Z,96761.04
2018-04-10T11:45:18.995Z,96762.41
2018-04-10T11:46:22.306Z,96763.78
2018-04-10T11:47:25.576Z,96756.24
2018-04-10T11:48:29.443Z,96756.27
2018-04-10T11:49:34.231Z,96753.34
2018-04-10T11:50:37.196Z,96748.67
2018-04-10T11:51:40.741Z,96751.51
2018-04-10T11:52:43.739Z,96749.88
2018-04-10T11:53:46.643Z,96743.08
2018-04-10T11:54:49.828Z,96741.14
2018-04-10T11:55:53.238Z,96748.78
2018-04-10T11:56:56.704Z,96747.39
2018-04-10T11:58:02.069Z,96745.73
2018-04-10T11:59:05.058Z,96738.74
2018-04-10T12:00:08.599Z,96741.90
2018-04-10T12:01:12.932Z,96733.73
2018-04-10T12:02:17.209Z,96746.84
2018-04-10T12:03:20.256Z,96742.67
2018-04-10T12:04:23.557Z,96739.97
2018-04-10T12:05:26.508Z,96739.73
2018-04-10T12:06:29.467Z,96740.94
2018-04-10T12:07:32.574Z,96734.30
2018-04-10T12:08:35.497Z,96734.59
2018-04-10T12:09:38.455Z,96735.50
2018-04-10T12:10:42.001Z,96728.02
2018-04-10T12:11:45.178Z,96728.61
2018-04-10T12:12:48.664Z,96725.14
2018-04-10T12:13:51.968Z,96721.52
2018-04-10T12:14:56.330Z,96717.59
2018-04-10T12:15:59.377Z,96713.22
2018-04-10T12:17:03.226Z,96716.23
2018-04-10T12:18:06.242Z,96716.73
2018-04-10T12:19:09.537Z,96704.89
2018-04-10T12:20:12.561Z,96716.64
2018-04-10T12:21:15.933Z,96717.61
2018-04-10T12:22:19.470Z,96711.78
2018-04-10T12:23:22.974Z,96715.91
2018-04-10T12:24:26.003Z,96709.89
2018-04-10T12:25:29.118Z,96705.17
2018-04-10T12:26:32.074Z,96711.31
2018-04-10T12:27:37.108Z,96710.84
2018-04-10T12:28:47.907Z,96708.87
2018-04-10T12:29:51.976Z,96712.97
2018-04-10T12:30:56.337Z,96713.09
2018-04-10T12:32:03.890Z,96712.59
2018-04-10T12:33:07.051Z,96711.84
2018-04-10T12:34:10.453Z,96704.26
2018-04-10T12:35:13.694Z,96697.22
2018-04-10T12:36:16.663Z,96697.78
2018-04-10T12:37:20.378Z,96695.19
2018-04-10T12:38:23.369Z,96696.91
2018-04-10T12:39:27.566Z,96688.73
2018-04-10T12:40:30.776Z,96691.69
2018-04-10T12:41:34.034Z,96697.41
2018-04-10T12:42:37.032Z,96688.39
2018-04-10T12:43:40.022Z,96686.92
2018-04-10T12:44:43.424Z,96677.30
2018-04-10T12:45:46.408Z,96684.22
2018-04-10T12:46:50.193Z,96687.78
2018-04-10T12:47:53.650Z,96686.03
2018-04-10T12:48:57.742Z,96676.36
2018-04-10T19:05:06.945Z,96818.73
2018-04-10T19:06:09.829Z,96818.00
2018-04-10T19:07:12.831Z,96815.33
2018-04-10T19:08:17.905Z,96817.55
2018-04-10T19:09:20.910Z,96822.30
2018-04-10T19:10:24.175Z,96823.84
2018-04-10T19:11:27.576Z,96821.83
2018-04-10T19:12:30.610Z,96822.03
2018-04-10T19:13:33.589Z,96824.72
2018-04-10T19:14:36.576Z,96815.05
2018-04-10T19:15:39.618Z,96818.19
2018-04-10T19:16:42.923Z,96804.48
2018-04-10T19:17:45.943Z,96813.83
2018-04-10T19:18:48.926Z,96816.25
2018-04-10T19:19:51.998Z,96817.63
2018-04-10T19:20:55.260Z,96818.66
2018-04-10T19:21:58.277Z,96815.90
2018-04-10T19:23:01.587Z,96816.11
2018-04-10T19:24:04.968Z,96820.80
2018-04-10T19:25:08.105Z,96820.84
2018-04-10T19:26:11.270Z,96817.47
2018-04-10T19:27:14.259Z,96823.93
2018-04-10T19:28:17.322Z,96828.14
2018-04-10T19:29:20.564Z,96822.03
2018-04-10T19:30:23.513Z,96828.86
2018-04-10T19:31:26.454Z,96830.03
2018-04-10T19:32:29.450Z,96835.02
2018-04-10T19:33:32.431Z,96840.23
2018-04-10T19:34:35.406Z,96845.72
2018-04-10T19:35:38.955Z,96849.19
2018-04-10T19:36:42.179Z,96853.78
2018-04-10T19:37:45.214Z,96858.04
2018-04-10T19:38:48.136Z,96858.91
2018-04-10T19:39:51.130Z,96858.52
2018-04-10T19:40:54.322Z,96867.67
2018-04-10T19:41:57.832Z,96864.47
2018-04-10T19:43:00.765Z,96867.38
2018-04-10T19:44:03.807Z,96878.05
2018-04-10T19:45:06.757Z,96879.95
2018-04-10T19:46:09.827Z,96887.53
2018-04-10T19:47:12.837Z,96886.44
2018-04-10T19:48:16.076Z,96887.95
2018-04-10T19:49:19.563Z,96885.48
2018-04-10T19:50:22.515Z,96887.14
2018-04-10T19:51:25.476Z,96886.55
2018-04-10T19:52:28.442Z,96885.42
2018-04-10T19:53:31.538Z,96880.19
2018-04-10T19:54:34.839Z,96880.99
2018-04-10T19:55:37.825Z,96884.19
2018-04-10T19:56:40.797Z,96884.33
2018-04-10T19:57:43.839Z,96878.83
2018-04-10T19:58:46.785Z,96885.66
2018-04-10T19:59:49.675Z,96884.48
2018-04-10T20:00:53.024Z,96878.83
2018-04-10T20:01:56.017Z,96879.25
2018-04-10T20:02:59.014Z,96890.62
2018-04-10T20:04:02.004Z,96882.82
2018-04-10T20:05:04.900Z,96885.72
2018-04-10T20:06:07.811Z,96889.96
2018-04-10T20:07:11.157Z,96890.80
2018-04-10T20:08:14.204Z,96884.98
2018-04-10T20:09:17.108Z,96878.38
2018-04-10T20:10:20.204Z,96885.89
2018-04-10T20:11:24.162Z,96882.45
2018-04-10T20:12:27.144Z,96883.37
2018-04-10T20:13:31.525Z,96882.28
2018-04-10T20:14:34.533Z,96878.69
2018-04-10T20:15:37.528Z,96878.00
2018-04-10T20:16:40.524Z,96872.84
2018-04-10T20:17:43.590Z,96869.37
2018-04-10T20:18:46.569Z,96867.63
2018-04-10T20:19:50.011Z,96874.31
2018-04-10T20:20:53.127Z,96874.88
2018-04-10T20:21:56.202Z,96876.47
2018-04-10T20:22:59.159Z,96868.28
2018-04-10T20:24:02.065Z,96857.78
2018-04-10T20:25:05.044Z,96859.42
2018-04-10T20:26:08.314Z,96861.31
2018-04-10T20:27:12.109Z,96849.33
2018-04-10T20:28:14.982Z,96848.07
2018-04-10T20:29:17.843Z,96849.72
2018-04-10T20:30:27.793Z,96847.13
2018-04-10T20:31:31.362Z,96841.33
2018-04-10T20:32:34.348Z,96834.22
2018-04-10T20:33:37.325Z,96834.36
2018-04-10T20:34:40.289Z,96838.15
2018-04-10T20:35:43.332Z,96832.44
2018-04-10T20:36:46.336Z,96837.66
2018-04-10T20:37:49.615Z,96834.69
2018-04-10T20:38:52.930Z,96831.77
2018-04-10T20:39:56.212Z,96833.18
2018-04-10T20:40:59.324Z,96835.32
2018-04-10T20:42:02.313Z,96835.17
2018-04-10T20:43:05.268Z,96833.18
2018-04-10T20:44:08.617Z,96835.78
2018-04-10T20:45:11.581Z,96837.79